Time;durP1;ratioP1;P1;durP2;ratioP2;P2;SDS_P1;SDS_P2;PMS_P1;PMS_P2;Temp;Humidity;BMP_temperature;BMP_pressure;BME280_temperature;BME280_humidity;BME280_pressure;Samples;Min_cycle;Max_cycle;Signal;HPM_P1;HPM_P2
2022/07/05 00:01:11;;;;;;;3.10;1.13;;;;;;;;;;4992022;28;20046;-61
2022/07/05 00:03:38;;;;;;;3.50;1.30;;;;;;;;;;4990634;28;20085;-61
2022/07/05 00:06:05;;;;;;;3.47;1.00;;;;;;;;;;4989258;28;20132;-61
2022/07/05 00:08:31;;;;;;;3.03;1.10;;;;;;;;;;4989427;28;20049;-61
2022/07/05 00:10:58;;;;;;;3.70;1.42;;;;;;;;;;4989208;28;20061;-61
2022/07/05 00:13:25;;;;;;;2.90;1.00;;;;;;;;;;4990571;28;20045;-61
2022/07/05 00:15:52;;;;;;;3.35;1.30;;;;;;;;;;4995576;28;20112;-61
2022/07/05 00:18:18;;;;;;;3.60;1.25;;;;;;;;;;4994599;28;20144;-61
2022/07/05 00:20:45;;;;;;;2.92;1.00;;;;;;;;;;4991925;28;20048;-61
2022/07/05 00:23:12;;;;;;;2.38;0.80;;;;;;;;;;4993975;28;20041;-62
2022/07/05 00:25:39;;;;;;;2.50;0.80;;;;;;;;;;4992216;28;20058;-61
2022/07/05 00:28:05;;;;;;;2.03;0.70;;;;;;;;;;4994357;28;20038;-60
2022/07/05 00:30:32;;;;;;;2.65;0.90;;;;;;;;;;4993279;28;20042;-61
2022/07/05 00:32:58;;;;;;;2.08;0.60;;;;;;;;;;4991440;28;20538;-61
2022/07/05 00:35:25;;;;;;;3.05;0.90;;;;;;;;;;4993622;28;20080;-61
2022/07/05 00:37:52;;;;;;;3.22;0.85;;;;;;;;;;4995593;28;20045;-61
2022/07/05 00:40:18;;;;;;;2.47;0.70;;;;;;;;;;4992343;28;20133;-61
2022/07/05 00:42:45;;;;;;;1.95;0.70;;;;;;;;;;4992472;28;20499;-61
2022/07/05 00:45:12;;;;;;;1.90;0.60;;;;;;;;;;4992987;28;20062;-62
2022/07/05 00:47:38;;;;;;;2.80;0.95;;;;;;;;;;4994427;28;20048;-62
2022/07/05 00:50:05;;;;;;;6.15;0.93;;;;;;;;;;4992862;28;20052;-62
2022/07/05 00:52:32;;;;;;;1.88;0.60;;;;;;;;;;4991846;28;20073;-63
2022/07/05 00:54:59;;;;;;;2.88;0.90;;;;;;;;;;4992977;28;20088;-62
2022/07/05 00:57:27;;;;;;;2.78;0.95;;;;;;;;;;4991319;28;20042;-61
2022/07/05 00:59:54;;;;;;;3.35;0.90;;;;;;;;;;4993401;28;20045;-62
2022/07/05 01:02:22;;;;;;;2.05;0.80;;;;;;;;;;4994596;28;20042;-61
2022/07/05 01:04:49;;;;;;;2.92;1.00;;;;;;;;;;4992391;28;20057;-62
2022/07/05 01:07:17;;;;;;;2.20;0.90;;;;;;;;;;4991951;28;20495;-63
2022/07/05 01:09:44;;;;;;;2.97;1.05;;;;;;;;;;4991727;28;20510;-63
2022/07/05 01:12:10;;;;;;;2.70;1.00;;;;;;;;;;4992500;28;20138;-62
2022/07/05 01:14:37;;;;;;;3.00;1.00;;;;;;;;;;4993280;28;20038;-63
2022/07/05 01:17:04;;;;;;;3.13;1.33;;;;;;;;;;4993685;28;20092;-63
2022/07/05 01:19:30;;;;;;;3.00;1.30;;;;;;;;;;4990322;28;20037;-62
2022/07/05 01:21:58;;;;;;;2.97;1.20;;;;;;;;;;4994760;28;20172;-62
2022/07/05 01:24:25;;;;;;;3.95;1.25;;;;;;;;;;4992346;28;20057;-62
2022/07/05 01:26:52;;;;;;;3.92;1.73;;;;;;;;;;4991640;28;20053;-63
2022/07/05 01:29:19;;;;;;;5.93;2.65;;;;;;;;;;4993521;28;20061;-62
2022/07/05 01:31:45;;;;;;;4.22;2.10;;;;;;;;;;4992880;28;20057;-62
2022/07/05 01:34:12;;;;;;;4.38;2.08;;;;;;;;;;4994158;28;20103;-62
2022/07/05 01:36:39;;;;;;;3.50;1.40;;;;;;;;;;4991306;28;20125;-60
2022/07/05 01:39:08;;;;;;;3.47;1.38;;;;;;;;;;4991922;28;20042;-61
2022/07/05 01:41:34;;;;;;;3.70;1.40;;;;;;;;;;4991927;28;20041;-60
2022/07/05 01:44:01;;;;;;;3.20;1.30;;;;;;;;;;4993258;28;20111;-62
2022/07/05 01:46:32;;;;;;;5.45;1.65;;;;;;;;;;4990599;28;20044;-61
2022/07/05 01:49:01;;;;;;;5.25;1.63;;;;;;;;;;4993404;28;20099;-60
2022/07/05 01:51:30;;;;;;;3.45;1.48;;;;;;;;;;4991212;28;20072;-61
2022/07/05 01:53:57;;;;;;;4.25;1.42;;;;;;;;;;4993575;28;20062;-60
2022/07/05 01:56:23;;;;;;;3.65;1.65;;;;;;;;;;4993669;28;20453;-60
2022/07/05 01:58:52;;;;;;;4.18;1.95;;;;;;;;;;4991584;28;20070;-60
2022/07/05 02:01:32;;;;;;;5.07;2.70;;;;;;;;;;4994650;28;20038;-60
2022/07/05 02:04:00;;;;;;;6.55;3.70;;;;;;;;;;4992245;28;20046;-60
2022/07/05 02:06:26;;;;;;;7.63;4.05;;;;;;;;;;4992341;28;20075;-59
2022/07/05 02:08:53;;;;;;;9.63;4.63;;;;;;;;;;4994117;28;20038;-60
2022/07/05 02:11:19;;;;;;;8.70;5.10;;;;;;;;;;4993462;28;20153;-59
2022/07/05 02:13:46;;;;;;;8.20;4.78;;;;;;;;;;5001828;28;20120;-59
2022/07/05 02:16:13;;;;;;;10.25;5.55;;;;;;;;;;4991816;28;21048;-60
2022/07/05 02:18:40;;;;;;;8.60;5.47;;;;;;;;;;4990678;28;20057;-59
2022/07/05 02:21:06;;;;;;;8.43;5.35;;;;;;;;;;4992782;28;20038;-60
2022/07/05 02:23:33;;;;;;;9.32;5.60;;;;;;;;;;4992568;28;20042;-60
2022/07/05 02:26:00;;;;;;;8.73;5.43;;;;;;;;;;4990783;28;20038;-60
2022/07/05 02:28:26;;;;;;;8.15;5.40;;;;;;;;;;4991287;28;20120;-59
2022/07/05 02:30:53;;;;;;;8.90;5.35;;;;;;;;;;4990304;28;20141;-60
2022/07/05 02:33:19;;;;;;;8.75;5.05;;;;;;;;;;4992444;28;20121;-60
2022/07/05 02:35:46;;;;;;;8.80;5.38;;;;;;;;;;4990257;28;20446;-60
2022/07/05 02:38:13;;;;;;;9.13;5.72;;;;;;;;;;5000416;28;20070;-59
2022/07/05 02:40:39;;;;;;;9.60;5.43;;;;;;;;;;4999047;28;20065;-59
2022/07/05 02:43:06;;;;;;;8.10;5.55;;;;;;;;;;4993021;28;20038;-60
2022/07/05 02:45:32;;;;;;;9.02;5.35;;;;;;;;;;4991539;28;20034;-59
2022/07/05 02:47:59;;;;;;;7.90;4.95;;;;;;;;;;4992768;28;20481;-60
2022/07/05 02:50:26;;;;;;;8.20;5.30;;;;;;;;;;4991044;28;20061;-58
2022/07/05 02:52:52;;;;;;;8.60;5.57;;;;;;;;;;4991282;28;20049;-60
2022/07/05 02:55:19;;;;;;;8.55;5.43;;;;;;;;;;4991394;28;20598;-58
2022/07/05 02:57:46;;;;;;;8.98;5.70;;;;;;;;;;4989987;28;20042;-60
2022/07/05 03:00:13;;;;;;;8.98;5.82;;;;;;;;;;5004930;28;20026;-60
2022/07/05 03:02:39;;;;;;;8.10;5.35;;;;;;;;;;4991321;28;20034;-60
2022/07/05 03:05:06;;;;;;;9.48;5.78;;;;;;;;;;4997737;28;20095;-60
2022/07/05 03:07:33;;;;;;;12.00;6.10;;;;;;;;;;4994425;28;20522;-60
2022/07/05 03:09:59;;;;;;;10.88;5.70;;;;;;;;;;4992249;28;20062;-60
2022/07/05 03:12:26;;;;;;;8.98;5.30;;;;;;;;;;4991065;28;20057;-58
2022/07/05 03:14:53;;;;;;;9.02;5.82;;;;;;;;;;4991989;28;20491;-61
2022/07/05 03:17:19;;;;;;;8.25;5.70;;;;;;;;;;4983511;28;20071;-59
2022/07/05 03:19:46;;;;;;;10.05;6.28;;;;;;;;;;4996988;28;20042;-61
2022/07/05 03:22:13;;;;;;;12.98;6.85;;;;;;;;;;4990415;28;20152;-62
2022/07/05 03:24:39;;;;;;;9.02;6.35;;;;;;;;;;4989586;28;20042;-61
2022/07/05 03:27:06;;;;;;;8.68;5.75;;;;;;;;;;4991686;28;21194;-60
2022/07/05 03:29:32;;;;;;;8.25;5.57;;;;;;;;;;4989320;28;20065;-61
2022/07/05 03:31:59;;;;;;;10.10;6.05;;;;;;;;;;4990390;28;20046;-60
2022/07/05 03:34:26;;;;;;;10.93;6.97;;;;;;;;;;4997998;28;20216;-61
2022/07/05 03:36:52;;;;;;;9.05;6.00;;;;;;;;;;4993036;28;20038;-61
2022/07/05 03:39:19;;;;;;;8.52;5.82;;;;;;;;;;4992126;28;20504;-61
2022/07/05 03:41:45;;;;;;;8.02;5.50;;;;;;;;;;4990670;28;20056;-62
2022/07/05 03:44:12;;;;;;;8.43;5.63;;;;;;;;;;4989998;28;20060;-60
2022/07/05 03:46:39;;;;;;;9.35;5.28;;;;;;;;;;4990438;28;20100;-60
2022/07/05 03:49:05;;;;;;;8.77;5.85;;;;;;;;;;4992402;28;20058;-61
2022/07/05 03:51:32;;;;;;;9.30;5.82;;;;;;;;;;4994751;28;20136;-61
2022/07/05 03:53:59;;;;;;;11.00;6.95;;;;;;;;;;4995498;28;20034;-62
2022/07/05 03:56:25;;;;;;;12.38;7.18;;;;;;;;;;4994709;28;20129;-62
2022/07/05 03:58:52;;;;;;;11.65;7.20;;;;;;;;;;4995397;28;20041;-60
2022/07/05 04:01:19;;;;;;;11.55;7.13;;;;;;;;;;4996574;28;22234;-60
2022/07/05 04:03:45;;;;;;;12.07;6.40;;;;;;;;;;5005002;28;20547;-61
2022/07/05 04:06:12;;;;;;;11.80;6.60;;;;;;;;;;5006252;28;20038;-62
2022/07/05 04:08:39;;;;;;;10.13;6.40;;;;;;;;;;4992490;28;20034;-62
2022/07/05 04:11:07;;;;;;;9.60;6.15;;;;;;;;;;4995169;28;20078;-61
2022/07/05 04:13:34;;;;;;;9.55;5.30;;;;;;;;;;4993062;28;20038;-61
2022/07/05 04:16:01;;;;;;;8.68;5.22;;;;;;;;;;4993750;28;20048;-60
2022/07/05 04:18:30;;;;;;;7.47;4.65;;;;;;;;;;4993066;28;20121;-61
2022/07/05 04:20:57;;;;;;;7.30;4.57;;;;;;;;;;4995736;28;20464;-60
2022/07/05 04:23:23;;;;;;;8.88;4.70;;;;;;;;;;4994875;28;20967;-62
2022/07/05 04:25:50;;;;;;;7.65;4.80;;;;;;;;;;4995767;28;20081;-61
2022/07/05 04:28:17;;;;;;;8.32;5.10;;;;;;;;;;4992821;28;20050;-60
2022/07/05 04:30:43;;;;;;;7.47;4.57;;;;;;;;;;4991423;28;20080;-61
2022/07/05 04:33:10;;;;;;;7.75;5.15;;;;;;;;;;4993517;28;20072;-62
2022/07/05 04:35:37;;;;;;;8.10;5.30;;;;;;;;;;4992982;28;20073;-61
2022/07/05 04:38:03;;;;;;;8.05;5.10;;;;;;;;;;4997025;28;20054;-60
2022/07/05 04:40:33;;;;;;;8.20;5.30;;;;;;;;;;4992971;28;20084;-58
2022/07/05 04:42:59;;;;;;;10.13;5.75;;;;;;;;;;4993857;28;20100;-60
2022/07/05 04:45:26;;;;;;;11.93;6.97;;;;;;;;;;4994375;28;20121;-61
2022/07/05 04:47:52;;;;;;;12.20;7.32;;;;;;;;;;4993409;28;20049;-58
2022/07/05 04:50:19;;;;;;;10.73;7.55;;;;;;;;;;4994018;28;20045;-61
2022/07/05 04:52:46;;;;;;;11.77;7.65;;;;;;;;;;4993480;28;20220;-61
2022/07/05 04:55:12;;;;;;;12.65;7.40;;;;;;;;;;4992938;28;20045;-62
2022/07/05 04:57:40;;;;;;;12.55;8.10;;;;;;;;;;4995934;28;20038;-61
2022/07/05 05:00:07;;;;;;;11.15;7.38;;;;;;;;;;4993009;28;20046;-61
2022/07/05 05:02:34;;;;;;;9.75;6.07;;;;;;;;;;4992356;28;20573;-62
2022/07/05 05:05:04;;;;;;;11.60;6.43;;;;;;;;;;4994010;28;20034;-62
2022/07/05 05:07:30;;;;;;;12.23;5.57;;;;;;;;;;4994106;28;20053;-60
2022/07/05 05:09:57;;;;;;;8.82;4.95;;;;;;;;;;4995794;28;20506;-61
2022/07/05 05:12:24;;;;;;;7.78;4.88;;;;;;;;;;4985422;28;20046;-61
2022/07/05 05:14:51;;;;;;;8.65;5.10;;;;;;;;;;5006422;28;20070;-62
2022/07/05 05:17:18;;;;;;;9.20;5.22;;;;;;;;;;5004270;28;20053;-60
2022/07/05 05:19:44;;;;;;;7.95;5.03;;;;;;;;;;4993863;28;20124;-61
2022/07/05 05:22:11;;;;;;;8.40;4.82;;;;;;;;;;4994228;28;20045;-59
2022/07/05 05:24:38;;;;;;;7.07;4.57;;;;;;;;;;4993888;28;20061;-59
2022/07/05 05:27:05;;;;;;;8.02;5.05;;;;;;;;;;4993107;28;20092;-61
2022/07/05 05:29:31;;;;;;;7.22;4.32;;;;;;;;;;4994366;28;20149;-62
2022/07/05 05:31:59;;;;;;;7.30;4.55;;;;;;;;;;4995292;28;20050;-60
2022/07/05 05:34:25;;;;;;;8.57;5.43;;;;;;;;;;4995525;28;20042;-61
2022/07/05 05:36:52;;;;;;;8.18;5.05;;;;;;;;;;4996831;28;20496;-61
2022/07/05 05:39:19;;;;;;;9.00;5.72;;;;;;;;;;4994948;28;20073;-61
2022/07/05 05:41:46;;;;;;;8.20;5.10;;;;;;;;;;4997351;28;20045;-60
2022/07/05 05:44:12;;;;;;;10.60;6.00;;;;;;;;;;4994324;28;20062;-61
2022/07/05 05:46:39;;;;;;;8.88;5.50;;;;;;;;;;4994157;28;20121;-61
2022/07/05 05:49:06;;;;;;;9.82;5.68;;;;;;;;;;4993745;28;20084;-61
2022/07/05 05:51:32;;;;;;;10.82;6.20;;;;;;;;;;4992173;28;20041;-61
2022/07/05 05:53:59;;;;;;;10.35;6.55;;;;;;;;;;4992051;28;20146;-61
2022/07/05 05:56:26;;;;;;;10.35;6.55;;;;;;;;;;4993172;28;20101;-59
2022/07/05 05:58:53;;;;;;;11.30;6.78;;;;;;;;;;4993339;28;20042;-61
2022/07/05 06:01:20;;;;;;;11.43;6.75;;;;;;;;;;4994756;28;20561;-61
2022/07/05 06:03:46;;;;;;;9.55;6.43;;;;;;;;;;4991895;28;20038;-61
2022/07/05 06:06:13;;;;;;;7.93;5.28;;;;;;;;;;4991228;28;20117;-61
2022/07/05 06:08:39;;;;;;;8.93;6.07;;;;;;;;;;4992103;28;20069;-60
2022/07/05 06:11:06;;;;;;;9.55;6.25;;;;;;;;;;4993775;28;20089;-61
2022/07/05 06:13:33;;;;;;;11.02;6.65;;;;;;;;;;4991944;28;20045;-62
2022/07/05 06:15:59;;;;;;;10.95;6.38;;;;;;;;;;4993315;28;20042;-62
2022/07/05 06:18:26;;;;;;;12.40;7.15;;;;;;;;;;4990866;28;20041;-61
2022/07/05 06:20:53;;;;;;;12.65;7.65;;;;;;;;;;4993731;28;20120;-61
2022/07/05 06:23:20;;;;;;;13.45;8.25;;;;;;;;;;4992070;28;20899;-61
2022/07/05 06:25:46;;;;;;;11.80;6.45;;;;;;;;;;5000037;28;20068;-60
2022/07/05 06:28:13;;;;;;;12.23;6.70;;;;;;;;;;4990370;28;20038;-60
2022/07/05 06:30:40;;;;;;;10.60;5.70;;;;;;;;;;4991558;28;20035;-60
2022/07/05 06:33:06;;;;;;;9.10;5.80;;;;;;;;;;4992201;28;20410;-61
2022/07/05 06:35:33;;;;;;;8.93;4.90;;;;;;;;;;4991850;28;20052;-61
2022/07/05 06:38:00;;;;;;;11.00;6.07;;;;;;;;;;4990266;28;20047;-60
2022/07/05 06:40:28;;;;;;;11.13;6.72;;;;;;;;;;4990206;28;20053;-60
2022/07/05 06:42:55;;;;;;;14.05;7.20;;;;;;;;;;4994202;28;20525;-59
2022/07/05 06:45:22;;;;;;;9.68;6.55;;;;;;;;;;4991726;28;20046;-59
2022/07/05 06:47:58;;;;;;;9.68;4.72;;;;;;;;;;4993279;28;20066;-61
2022/07/05 06:50:26;;;;;;;6.50;3.47;;;;;;;;;;4989423;28;20117;-60
2022/07/05 06:52:52;;;;;;;5.80;2.92;;;;;;;;;;4992667;28;20133;-60
2022/07/05 06:55:19;;;;;;;5.43;2.88;;;;;;;;;;4991213;28;20038;-60
2022/07/05 06:57:46;;;;;;;5.32;2.58;;;;;;;;;;4992699;28;20050;-60
2022/07/05 07:00:13;;;;;;;5.63;2.65;;;;;;;;;;4993296;28;20039;-59
2022/07/05 07:02:40;;;;;;;7.13;2.20;;;;;;;;;;4991800;28;20049;-61
2022/07/05 07:05:07;;;;;;;4.63;2.60;;;;;;;;;;4990949;28;20041;-60
2022/07/05 07:10:20;;;;;;;6.53;3.58;;;;;;;;;;4991245;28;20433;-60
2022/07/05 07:12:46;;;;;;;7.90;4.50;;;;;;;;;;4990891;28;20406;-60
2022/07/05 07:15:13;;;;;;;7.65;4.90;;;;;;;;;;4991339;28;20561;-59
2022/07/05 07:17:40;;;;;;;10.10;5.63;;;;;;;;;;4989280;28;20044;-60
2022/07/05 07:20:07;;;;;;;9.63;5.50;;;;;;;;;;4992021;28;20081;-60
2022/07/05 07:22:33;;;;;;;10.63;6.47;;;;;;;;;;4991749;28;20108;-61
2022/07/05 07:25:00;;;;;;;10.60;6.60;;;;;;;;;;4991750;28;20205;-60
2022/07/05 07:27:27;;;;;;;10.80;7.10;;;;;;;;;;4991663;28;20120;-61
2022/07/05 07:29:53;;;;;;;10.55;7.13;;;;;;;;;;4991346;28;20389;-60
2022/07/05 07:32:20;;;;;;;10.35;7.45;;;;;;;;;;4991171;28;20053;-60
2022/07/05 07:34:47;;;;;;;10.88;7.32;;;;;;;;;;4990031;28;20118;-61
2022/07/05 07:37:13;;;;;;;12.25;8.48;;;;;;;;;;4988983;28;20042;-60
2022/07/05 07:39:41;;;;;;;12.27;8.43;;;;;;;;;;4988922;28;20097;-59
2022/07/05 07:42:08;;;;;;;11.45;8.05;;;;;;;;;;4994314;28;20050;-61
2022/07/05 07:44:34;;;;;;;11.68;7.65;;;;;;;;;;4992677;28;20038;-60
2022/07/05 07:47:01;;;;;;;10.65;7.38;;;;;;;;;;4996560;28;20066;-61
2022/07/05 07:49:28;;;;;;;9.30;6.20;;;;;;;;;;4991581;28;20115;-61
2022/07/05 07:51:54;;;;;;;10.80;5.97;;;;;;;;;;4992979;28;20057;-60
2022/07/05 07:54:21;;;;;;;8.10;5.32;;;;;;;;;;4992200;28;20080;-61
2022/07/05 07:56:48;;;;;;;7.75;4.75;;;;;;;;;;4999447;28;21782;-61
2022/07/05 07:59:14;;;;;;;8.18;4.93;;;;;;;;;;4991998;28;20034;-61
2022/07/05 08:01:41;;;;;;;7.80;4.57;;;;;;;;;;4991751;28;20089;-60
2022/07/05 08:04:08;;;;;;;7.10;4.47;;;;;;;;;;4991585;28;20031;-59
2022/07/05 08:06:34;;;;;;;9.00;4.63;;;;;;;;;;4990624;28;20513;-61
2022/07/05 08:09:01;;;;;;;8.32;4.78;;;;;;;;;;4991163;28;20133;-60
2022/07/05 08:11:27;;;;;;;8.25;4.38;;;;;;;;;;4992892;28;20196;-60
2022/07/05 08:13:54;;;;;;;8.07;5.30;;;;;;;;;;4991869;28;20053;-59
2022/07/05 08:16:21;;;;;;;8.35;4.53;;;;;;;;;;4989759;28;20344;-59
2022/07/05 08:21:37;;;;;;;8.35;5.03;;;;;;;;;;4991493;28;20474;-60
2022/07/05 08:24:11;;;;;;;11.57;7.88;;;;;;;;;;4990731;28;20052;-60
2022/07/05 08:26:39;;;;;;;12.40;8.30;;;;;;;;;;4992533;28;20042;-60
2022/07/05 08:29:07;;;;;;;12.95;7.97;;;;;;;;;;4992215;28;20132;-60
2022/07/05 08:31:35;;;;;;;14.27;9.18;;;;;;;;;;4991138;28;20396;-59
2022/07/05 08:34:02;;;;;;;12.32;8.60;;;;;;;;;;4989994;28;20500;-59
2022/07/05 08:36:28;;;;;;;11.80;8.00;;;;;;;;;;4993207;28;20046;-59
2022/07/05 08:38:55;;;;;;;12.80;8.00;;;;;;;;;;4992733;28;20050;-60
2022/07/05 08:41:22;;;;;;;10.05;6.55;;;;;;;;;;4993845;28;20038;-60
2022/07/05 08:43:51;;;;;;;9.45;6.70;;;;;;;;;;4993151;28;20481;-60
2022/07/05 08:46:18;;;;;;;11.73;6.75;;;;;;;;;;4993825;28;20402;-59
2022/07/05 08:48:48;;;;;;;9.05;5.90;;;;;;;;;;4993149;28;20045;-60
2022/07/05 08:51:22;;;;;;;8.38;5.38;;;;;;;;;;4994749;28;20120;-60
2022/07/05 08:53:49;;;;;;;7.82;5.25;;;;;;;;;;5002083;28;20397;-60
2022/07/05 08:56:16;;;;;;;9.85;5.72;;;;;;;;;;4994702;28;20035;-58
2022/07/05 08:58:43;;;;;;;7.95;5.45;;;;;;;;;;4993028;28;20038;-60
2022/07/05 09:01:11;;;;;;;8.85;5.30;;;;;;;;;;4995878;28;20488;-58
2022/07/05 09:03:43;;;;;;;9.02;5.47;;;;;;;;;;4992507;28;20121;-59
2022/07/05 09:06:11;;;;;;;8.10;5.25;;;;;;;;;;4994317;28;20057;-60
2022/07/05 09:08:39;;;;;;;7.85;5.28;;;;;;;;;;4993624;28;20046;-59
2022/07/05 09:11:16;;;;;;;7.82;5.10;;;;;;;;;;4994689;28;20053;-59
2022/07/05 09:13:49;;;;;;;7.50;5.30;;;;;;;;;;4992643;28;20194;-60
2022/07/05 09:16:16;;;;;;;10.90;5.82;;;;;;;;;;4994484;28;20030;-60
2022/07/05 09:18:44;;;;;;;7.95;4.90;;;;;;;;;;4992132;28;20049;-60
2022/07/05 09:21:15;;;;;;;8.68;5.05;;;;;;;;;;4992768;28;20495;-60
2022/07/05 09:23:42;;;;;;;7.97;4.68;;;;;;;;;;4992663;28;20050;-58
2022/07/05 09:26:09;;;;;;;7.85;4.88;;;;;;;;;;4992406;28;20427;-60
2022/07/05 09:28:36;;;;;;;9.13;5.03;;;;;;;;;;5002519;28;20041;-60
2022/07/05 09:31:03;;;;;;;8.57;5.50;;;;;;;;;;4994433;28;20064;-61
2022/07/05 09:33:29;;;;;;;8.23;5.13;;;;;;;;;;4994439;28;20050;-61
2022/07/05 09:35:57;;;;;;;8.57;5.38;;;;;;;;;;4992001;28;21108;-60
2022/07/05 09:38:25;;;;;;;8.38;5.25;;;;;;;;;;5006417;28;20049;-60
2022/07/05 09:40:52;;;;;;;9.32;5.03;;;;;;;;;;4994729;28;20041;-63
2022/07/05 09:43:22;;;;;;;8.85;5.05;;;;;;;;;;4995959;28;20041;-59
2022/07/05 09:45:55;;;;;;;8.75;5.20;;;;;;;;;;4991766;28;20046;-61
2022/07/05 09:48:22;;;;;;;9.07;5.50;;;;;;;;;;4991260;28;20514;-60
2022/07/05 09:50:51;;;;;;;8.23;4.90;;;;;;;;;;4991897;28;20866;-60
2022/07/05 09:53:18;;;;;;;8.45;4.38;;;;;;;;;;4993859;28;20466;-60
2022/07/05 09:56:05;;;;;;;7.57;4.55;;;;;;;;;;4993066;28;21879;-60
2022/07/05 09:58:32;;;;;;;8.50;5.18;;;;;;;;;;4992075;28;20030;-59
2022/07/05 10:00:58;;;;;;;8.13;5.00;;;;;;;;;;4993340;28;20038;-60
2022/07/05 10:03:25;;;;;;;8.38;4.95;;;;;;;;;;4991072;28;20859;-60
2022/07/05 10:05:51;;;;;;;9.02;4.97;;;;;;;;;;5016105;28;20047;-60
2022/07/05 10:08:20;;;;;;;10.85;4.72;;;;;;;;;;5000963;28;21999;-59
2022/07/05 10:10:47;;;;;;;7.88;4.88;;;;;;;;;;4993648;28;20061;-61
2022/07/05 10:13:15;;;;;;;9.80;5.15;;;;;;;;;;4991997;28;20120;-61
2022/07/05 10:15:43;;;;;;;10.25;6.20;;;;;;;;;;4991587;28;20141;-59
2022/07/05 10:18:12;;;;;;;10.35;5.95;;;;;;;;;;4993474;28;20041;-61
2022/07/05 10:20:41;;;;;;;11.45;6.70;;;;;;;;;;4992023;28;20137;-60
2022/07/05 10:23:09;;;;;;;15.25;6.47;;;;;;;;;;4993998;28;20487;-60
2022/07/05 10:25:37;;;;;;;12.15;6.95;;;;;;;;;;4990145;28;20034;-59
2022/07/05 10:28:04;;;;;;;14.70;7.20;;;;;;;;;;4992482;28;20038;-60
2022/07/05 10:30:30;;;;;;;10.50;6.32;;;;;;;;;;4992071;28;20070;-60
2022/07/05 10:32:57;;;;;;;13.45;7.43;;;;;;;;;;4994284;28;20076;-60
2022/07/05 10:35:24;;;;;;;11.65;7.05;;;;;;;;;;4991961;28;20122;-59
2022/07/05 10:37:51;;;;;;;10.77;6.95;;;;;;;;;;4992635;28;20066;-58
2022/07/05 10:40:18;;;;;;;11.32;7.20;;;;;;;;;;4992325;28;20054;-59
2022/07/05 10:42:52;;;;;;;14.32;7.47;;;;;;;;;;4992037;28;20519;-59
2022/07/05 10:45:25;;;;;;;12.23;7.22;;;;;;;;;;4991862;28;20045;-59
2022/07/05 10:48:10;;;;;;;14.13;7.53;;;;;;;;;;4992693;28;20052;-60
2022/07/05 10:50:56;;;;;;;15.88;7.57;;;;;;;;;;4991784;28;20039;-58
2022/07/05 10:53:31;;;;;;;13.15;7.93;;;;;;;;;;4991044;28;20038;-59
2022/07/05 10:55:57;;;;;;;15.60;7.63;;;;;;;;;;4991414;28;20037;-60
2022/07/05 10:58:28;;;;;;;13.68;7.55;;;;;;;;;;4991730;28;20088;-60
2022/07/05 11:01:13;;;;;;;17.13;8.48;;;;;;;;;;4991513;28;20105;-60
2022/07/05 11:03:41;;;;;;;14.65;7.90;;;;;;;;;;4991943;28;20046;-58
2022/07/05 11:06:08;;;;;;;17.40;7.93;;;;;;;;;;4992601;28;20117;-59
2022/07/05 11:08:53;;;;;;;14.35;7.88;;;;;;;;;;4990643;28;20041;-59
2022/07/05 11:11:24;;;;;;;12.98;7.32;;;;;;;;;;4991087;28;20133;-59
2022/07/05 11:13:51;;;;;;;12.18;7.22;;;;;;;;;;4997884;28;20042;-60
2022/07/05 11:16:28;;;;;;;14.38;7.03;;;;;;;;;;4994763;28;20050;-60
2022/07/05 11:19:12;;;;;;;11.75;6.97;;;;;;;;;;4992953;28;20806;-61
2022/07/05 11:22:00;;;;;;;12.30;6.72;;;;;;;;;;4991781;28;20038;-60
2022/07/05 11:24:28;;;;;;;11.95;6.63;;;;;;;;;;4989834;28;20038;-60
2022/07/05 11:26:58;;;;;;;13.75;6.45;;;;;;;;;;4991318;28;20041;-60
2022/07/05 11:29:43;;;;;;;13.77;6.50;;;;;;;;;;4989815;28;20086;-57
2022/07/05 11:32:11;;;;;;;13.82;6.72;;;;;;;;;;4990431;28;20046;-59
2022/07/05 11:34:38;;;;;;;19.10;6.28;;;;;;;;;;4989434;28;20045;-60
2022/07/05 11:37:14;;;;;;;13.77;5.28;;;;;;;;;;4993034;28;20753;-59
2022/07/05 11:39:44;;;;;;;20.95;6.28;;;;;;;;;;4992202;28;20040;-58
2022/07/05 11:42:11;;;;;;;11.20;5.28;;;;;;;;;;4992085;28;21815;-60
2022/07/05 11:44:40;;;;;;;15.15;5.40;;;;;;;;;;4990142;28;20097;-60
2022/07/05 11:47:08;;;;;;;13.60;5.78;;;;;;;;;;4990962;28;20506;-60
2022/07/05 11:49:36;;;;;;;15.18;5.55;;;;;;;;;;4989899;28;21114;-60
2022/07/05 11:52:03;;;;;;;17.65;5.60;;;;;;;;;;4990665;28;20077;-59
2022/07/05 11:54:31;;;;;;;23.35;5.90;;;;;;;;;;4990506;28;20042;-60
2022/07/05 11:56:58;;;;;;;17.67;5.80;;;;;;;;;;4990211;28;20042;-60
2022/07/05 11:59:25;;;;;;;15.60;5.90;;;;;;;;;;4990460;28;20038;-59
2022/07/05 12:01:52;;;;;;;16.48;5.97;;;;;;;;;;5014709;28;20137;-59
2022/07/05 12:04:29;;;;;;;28.42;6.93;;;;;;;;;;5001111;28;20037;-59
2022/07/05 12:06:56;;;;;;;26.65;6.63;;;;;;;;;;4996488;28;20165;-57
2022/07/05 12:09:24;;;;;;;25.92;6.70;;;;;;;;;;5016557;28;20733;-60
2022/07/05 12:14:51;;;;;;;44.85;7.80;;;;;;;;;;4994299;28;20053;-59
2022/07/05 12:17:19;;;;;;;24.08;6.38;;;;;;;;;;4993376;28;20049;-60
2022/07/05 12:19:46;;;;;;;21.33;6.88;;;;;;;;;;4998751;28;20102;-60
2022/07/05 12:22:14;;;;;;;29.38;7.95;;;;;;;;;;5000876;28;20695;-61
2022/07/05 12:24:41;;;;;;;29.48;7.93;;;;;;;;;;4993034;28;20132;-61
2022/07/05 12:27:10;;;;;;;36.85;8.77;;;;;;;;;;4992807;28;20045;-60
2022/07/05 12:29:37;;;;;;;30.35;9.02;;;;;;;;;;4993222;28;20049;-60
2022/07/05 12:32:08;;;;;;;31.55;9.68;;;;;;;;;;4994089;28;20057;-58
2022/07/05 12:34:35;;;;;;;21.58;8.90;;;;;;;;;;4992804;28;20430;-59
2022/07/05 12:37:02;;;;;;;34.78;9.48;;;;;;;;;;4994211;28;20157;-59
2022/07/05 12:39:28;;;;;;;20.88;9.15;;;;;;;;;;5020596;28;20045;-59
2022/07/05 12:41:56;;;;;;;21.77;8.68;;;;;;;;;;5001196;28;20037;-60
2022/07/05 12:44:23;;;;;;;16.40;8.52;;;;;;;;;;4993461;28;20038;-59
2022/07/05 12:46:50;;;;;;;20.77;8.57;;;;;;;;;;4993788;28;20041;-58
2022/07/05 12:49:17;;;;;;;27.17;9.60;;;;;;;;;;4993541;28;20815;-57
2022/07/05 12:51:44;;;;;;;52.38;9.13;;;;;;;;;;4995292;28;20038;-58
2022/07/05 13:00:03;;;;;;;13.88;6.70;;;;;;;;;;5007180;28;20563;-57
2022/07/05 13:02:40;;;;;;;14.35;6.47;;;;;;;;;;4993634;28;20065;-60
2022/07/05 13:05:09;;;;;;;12.35;6.55;;;;;;;;;;4994527;28;20170;-61
2022/07/05 13:07:43;;;;;;;11.75;5.90;;;;;;;;;;4993155;28;20093;-60
2022/07/05 13:10:16;;;;;;;10.82;6.28;;;;;;;;;;4994261;28;20046;-59
2022/07/05 13:12:43;;;;;;;12.10;6.82;;;;;;;;;;4994532;28;20051;-60
2022/07/05 13:15:10;;;;;;;12.85;7.97;;;;;;;;;;4990795;28;20475;-59
2022/07/05 13:17:37;;;;;;;13.35;7.63;;;;;;;;;;4993120;28;20042;-59
2022/07/05 13:20:04;;;;;;;14.23;8.40;;;;;;;;;;4994672;28;20145;-58
2022/07/05 13:22:31;;;;;;;14.30;8.40;;;;;;;;;;4991501;28;20131;-58
2022/07/05 13:24:57;;;;;;;12.38;7.72;;;;;;;;;;4993283;28;20092;-58
2022/07/05 13:27:24;;;;;;;13.35;8.93;;;;;;;;;;4992000;28;20462;-59
2022/07/05 13:29:50;;;;;;;13.88;9.02;;;;;;;;;;4993158;28;20042;-59
2022/07/05 13:32:17;;;;;;;16.02;8.82;;;;;;;;;;4993530;28;20111;-59
2022/07/05 13:34:48;;;;;;;11.95;7.32;;;;;;;;;;4992270;28;21443;-58
2022/07/05 13:37:15;;;;;;;9.80;6.07;;;;;;;;;;4992856;28;20046;-59
2022/07/05 13:39:42;;;;;;;9.07;5.93;;;;;;;;;;4992344;28;20044;-59
2022/07/05 13:42:08;;;;;;;7.57;5.03;;;;;;;;;;4993147;28;20641;-59
2022/07/05 13:44:35;;;;;;;7.22;4.63;;;;;;;;;;4992779;28;20046;-59
2022/07/05 13:47:02;;;;;;;6.65;4.18;;;;;;;;;;4994255;28;20129;-59
2022/07/05 13:49:30;;;;;;;6.00;4.10;;;;;;;;;;5005381;28;20044;-59
2022/07/05 13:52:00;;;;;;;5.88;3.75;;;;;;;;;;5001632;28;20054;-59
2022/07/05 13:54:26;;;;;;;5.18;3.55;;;;;;;;;;4990446;28;20044;-60
2022/07/05 13:56:53;;;;;;;5.95;3.53;;;;;;;;;;5014587;28;20153;-60
2022/07/05 13:59:19;;;;;;;5.45;3.50;;;;;;;;;;5003979;28;20129;-59
2022/07/05 14:01:46;;;;;;;6.13;3.88;;;;;;;;;;5001581;28;20419;-58
2022/07/05 14:04:13;;;;;;;7.35;4.18;;;;;;;;;;4993341;28;20439;-60
2022/07/05 14:06:39;;;;;;;7.95;4.60;;;;;;;;;;4993428;28;20050;-60
2022/07/05 14:09:08;;;;;;;8.50;4.60;;;;;;;;;;4992816;28;20077;-60
2022/07/05 14:11:34;;;;;;;11.77;4.82;;;;;;;;;;4992454;28;20038;-59
2022/07/05 14:14:01;;;;;;;7.25;4.65;;;;;;;;;;4992334;28;20132;-60
2022/07/05 14:16:28;;;;;;;9.50;4.72;;;;;;;;;;4993540;28;20088;-60
2022/07/05 14:18:56;;;;;;;8.45;4.18;;;;;;;;;;4995288;28;20086;-60
2022/07/05 14:21:22;;;;;;;6.50;4.25;;;;;;;;;;4995341;28;20039;-60
2022/07/05 14:23:49;;;;;;;7.65;5.18;;;;;;;;;;4992934;28;20041;-59
2022/07/05 14:26:16;;;;;;;8.13;5.15;;;;;;;;;;4993526;28;20729;-60
2022/07/05 14:28:43;;;;;;;7.32;4.60;;;;;;;;;;4993428;28;20494;-60
2022/07/05 14:31:10;;;;;;;7.68;4.90;;;;;;;;;;4992730;28;20049;-56
2022/07/05 14:33:39;;;;;;;8.27;5.10;;;;;;;;;;4992569;28;20163;-60
2022/07/05 14:36:06;;;;;;;10.35;5.47;;;;;;;;;;4993556;28;20644;-58
2022/07/05 14:38:33;;;;;;;7.25;4.63;;;;;;;;;;4991692;28;20046;-60
2022/07/05 14:40:59;;;;;;;8.63;5.47;;;;;;;;;;4990651;28;20042;-59
2022/07/05 14:43:26;;;;;;;7.75;5.30;;;;;;;;;;4991673;28;20041;-60
2022/07/05 14:45:52;;;;;;;8.48;5.10;;;;;;;;;;4993981;28;20446;-60
2022/07/05 14:48:20;;;;;;;8.82;5.03;;;;;;;;;;4994862;28;20169;-56
2022/07/05 14:50:49;;;;;;;7.35;4.82;;;;;;;;;;5001664;28;20045;-59
2022/07/05 14:53:17;;;;;;;9.57;5.63;;;;;;;;;;4993539;28;20054;-59
2022/07/05 14:55:43;;;;;;;8.77;5.55;;;;;;;;;;4994573;28;20088;-59